sensor_id;sensor_type;location;lat;lon;timestamp;P1;durP1;ratioP1;P2;durP2;ratioP2
9880;SDS011;4979;51.014;6.678;2024-01-25T00:00:05;46.13;;;7.57;;
9880;SDS011;4979;51.014;6.678;2024-01-25T00:02:31;37.03;;;6.80;;
9880;SDS011;4979;51.014;6.678;2024-01-25T00:04:57;35.33;;;6.45;;
9880;SDS011;4979;51.014;6.678;2024-01-25T00:07:22;39.33;;;7.10;;
9880;SDS011;4979;51.014;6.678;2024-01-25T00:09:49;49.38;;;9.00;;
9880;SDS011;4979;51.014;6.678;2024-01-25T00:12:14;40.72;;;7.45;;
9880;SDS011;4979;51.014;6.678;2024-01-25T00:14:40;34.47;;;7.93;;
9880;SDS011;4979;51.014;6.678;2024-01-25T00:17:05;30.92;;;6.30;;
9880;SDS011;4979;51.014;6.678;2024-01-25T00:19:31;46.33;;;8.80;;
9880;SDS011;4979;51.014;6.678;2024-01-25T00:21:58;36.50;;;7.03;;
9880;SDS011;4979;51.014;6.678;2024-01-25T00:24:25;43.80;;;7.38;;
9880;SDS011;4979;51.014;6.678;2024-01-25T00:26:51;37.92;;;6.72;;
9880;SDS011;4979;51.014;6.678;2024-01-25T00:29:16;51.28;;;8.45;;
9880;SDS011;4979;51.014;6.678;2024-01-25T00:31:42;41.53;;;8.80;;
9880;SDS011;4979;51.014;6.678;2024-01-25T00:34:08;40.97;;;7.63;;
9880;SDS011;4979;51.014;6.678;2024-01-25T00:36:33;38.88;;;7.32;;
9880;SDS011;4979;51.014;6.678;2024-01-25T00:38:59;34.08;;;7.47;;
9880;SDS011;4979;51.014;6.678;2024-01-25T00:41:25;43.47;;;7.72;;
9880;SDS011;4979;51.014;6.678;2024-01-25T00:43:52;35.58;;;7.18;;
9880;SDS011;4979;51.014;6.678;2024-01-25T00:46:18;43.47;;;6.75;;
9880;SDS011;4979;51.014;6.678;2024-01-25T00:48:43;41.90;;;7.63;;
9880;SDS011;4979;51.014;6.678;2024-01-25T00:51:11;54.30;;;8.88;;
9880;SDS011;4979;51.014;6.678;2024-01-25T00:53:40;41.35;;;8.52;;
9880;SDS011;4979;51.014;6.678;2024-01-25T00:56:06;35.08;;;7.00;;
9880;SDS011;4979;51.014;6.678;2024-01-25T00:58:33;30.13;;;6.13;;
9880;SDS011;4979;51.014;6.678;2024-01-25T01:00:58;40.55;;;8.50;;
9880;SDS011;4979;51.014;6.678;2024-01-25T01:03:24;31.00;;;7.07;;
9880;SDS011;4979;51.014;6.678;2024-01-25T01:05:50;40.35;;;7.03;;
9880;SDS011;4979;51.014;6.678;2024-01-25T01:08:16;38.20;;;6.88;;
9880;SDS011;4979;51.014;6.678;2024-01-25T01:10:42;36.33;;;6.70;;
9880;SDS011;4979;51.014;6.678;2024-01-25T01:13:07;39.05;;;8.18;;
9880;SDS011;4979;51.014;6.678;2024-01-25T01:15:33;34.10;;;6.43;;
9880;SDS011;4979;51.014;6.678;2024-01-25T01:17:58;35.92;;;7.13;;
9880;SDS011;4979;51.014;6.678;2024-01-25T01:20:24;42.30;;;8.13;;
9880;SDS011;4979;51.014;6.678;2024-01-25T01:22:51;49.30;;;8.25;;
9880;SDS011;4979;51.014;6.678;2024-01-25T01:25:17;44.60;;;7.10;;
9880;SDS011;4979;51.014;6.678;2024-01-25T01:27:43;50.40;;;7.72;;
9880;SDS011;4979;51.014;6.678;2024-01-25T01:30:08;41.85;;;8.13;;
9880;SDS011;4979;51.014;6.678;2024-01-25T01:32:34;39.67;;;6.97;;
9880;SDS011;4979;51.014;6.678;2024-01-25T01:35:00;28.77;;;5.70;;
9880;SDS011;4979;51.014;6.678;2024-01-25T01:37:25;41.13;;;8.88;;
9880;SDS011;4979;51.014;6.678;2024-01-25T01:39:51;38.67;;;6.63;;
9880;SDS011;4979;51.014;6.678;2024-01-25T01:42:17;38.30;;;8.13;;
9880;SDS011;4979;51.014;6.678;2024-01-25T01:44:43;29.65;;;6.20;;
9880;SDS011;4979;51.014;6.678;2024-01-25T01:47:08;37.90;;;6.93;;
9880;SDS011;4979;51.014;6.678;2024-01-25T01:49:34;33.75;;;6.35;;
9880;SDS011;4979;51.014;6.678;2024-01-25T01:52:00;31.23;;;6.18;;
9880;SDS011;4979;51.014;6.678;2024-01-25T01:54:27;45.13;;;6.75;;
9880;SDS011;4979;51.014;6.678;2024-01-25T01:56:53;47.42;;;7.45;;
9880;SDS011;4979;51.014;6.678;2024-01-25T01:59:19;35.67;;;7.50;;
9880;SDS011;4979;51.014;6.678;2024-01-25T02:01:45;46.00;;;7.15;;
9880;SDS011;4979;51.014;6.678;2024-01-25T02:04:11;35.30;;;7.05;;
9880;SDS011;4979;51.014;6.678;2024-01-25T02:06:36;39.70;;;6.85;;
9880;SDS011;4979;51.014;6.678;2024-01-25T02:09:02;47.22;;;8.27;;
9880;SDS011;4979;51.014;6.678;2024-01-25T02:11:28;43.95;;;7.28;;
9880;SDS011;4979;51.014;6.678;2024-01-25T02:13:54;45.80;;;6.72;;
9880;SDS011;4979;51.014;6.678;2024-01-25T02:16:20;32.97;;;6.45;;
9880;SDS011;4979;51.014;6.678;2024-01-25T02:18:46;48.30;;;7.55;;
9880;SDS011;4979;51.014;6.678;2024-01-25T02:21:12;43.70;;;7.50;;
9880;SDS011;4979;51.014;6.678;2024-01-25T02:23:38;53.75;;;7.63;;
9880;SDS011;4979;51.014;6.678;2024-01-25T02:26:04;44.33;;;9.30;;
9880;SDS011;4979;51.014;6.678;2024-01-25T02:28:29;41.03;;;7.63;;
9880;SDS011;4979;51.014;6.678;2024-01-25T02:30:55;33.15;;;7.28;;
9880;SDS011;4979;51.014;6.678;2024-01-25T02:33:20;43.50;;;7.55;;
9880;SDS011;4979;51.014;6.678;2024-01-25T02:35:46;46.78;;;8.02;;
9880;SDS011;4979;51.014;6.678;2024-01-25T02:38:11;33.90;;;6.88;;
9880;SDS011;4979;51.014;6.678;2024-01-25T02:40:37;43.30;;;7.70;;
9880;SDS011;4979;51.014;6.678;2024-01-25T02:43:03;43.28;;;7.82;;
9880;SDS011;4979;51.014;6.678;2024-01-25T02:45:28;44.22;;;8.10;;
9880;SDS011;4979;51.014;6.678;2024-01-25T02:47:54;43.47;;;8.23;;
9880;SDS011;4979;51.014;6.678;2024-01-25T02:50:19;42.80;;;7.35;;
9880;SDS011;4979;51.014;6.678;2024-01-25T02:52:45;42.92;;;8.18;;
9880;SDS011;4979;51.014;6.678;2024-01-25T02:55:11;44.95;;;7.05;;
9880;SDS011;4979;51.014;6.678;2024-01-25T02:57:36;43.30;;;7.25;;
9880;SDS011;4979;51.014;6.678;2024-01-25T03:00:02;50.97;;;7.68;;
9880;SDS011;4979;51.014;6.678;2024-01-25T03:02:28;52.67;;;7.88;;
9880;SDS011;4979;51.014;6.678;2024-01-25T03:04:53;44.03;;;7.40;;
9880;SDS011;4979;51.014;6.678;2024-01-25T03:07:19;40.90;;;7.18;;
9880;SDS011;4979;51.014;6.678;2024-01-25T03:09:45;36.58;;;6.90;;
9880;SDS011;4979;51.014;6.678;2024-01-25T03:12:10;43.35;;;7.40;;
9880;SDS011;4979;51.014;6.678;2024-01-25T03:14:36;45.38;;;7.25;;
9880;SDS011;4979;51.014;6.678;2024-01-25T03:17:01;45.08;;;8.35;;
9880;SDS011;4979;51.014;6.678;2024-01-25T03:19:27;28.65;;;7.18;;
9880;SDS011;4979;51.014;6.678;2024-01-25T03:21:53;42.13;;;7.63;;
9880;SDS011;4979;51.014;6.678;2024-01-25T03:24:19;58.13;;;8.57;;
9880;SDS011;4979;51.014;6.678;2024-01-25T03:26:45;41.35;;;6.72;;
9880;SDS011;4979;51.014;6.678;2024-01-25T03:29:11;50.65;;;7.28;;
9880;SDS011;4979;51.014;6.678;2024-01-25T03:31:36;50.75;;;8.30;;
9880;SDS011;4979;51.014;6.678;2024-01-25T03:34:02;48.95;;;7.95;;
9880;SDS011;4979;51.014;6.678;2024-01-25T03:36:28;30.67;;;6.05;;
9880;SDS011;4979;51.014;6.678;2024-01-25T03:38:54;40.58;;;7.13;;
9880;SDS011;4979;51.014;6.678;2024-01-25T03:41:19;54.00;;;9.25;;
9880;SDS011;4979;51.014;6.678;2024-01-25T03:43:45;37.03;;;6.45;;
9880;SDS011;4979;51.014;6.678;2024-01-25T03:46:13;42.33;;;7.70;;
9880;SDS011;4979;51.014;6.678;2024-01-25T03:48:39;52.25;;;8.13;;
9880;SDS011;4979;51.014;6.678;2024-01-25T03:51:04;40.83;;;8.63;;
9880;SDS011;4979;51.014;6.678;2024-01-25T03:53:30;42.25;;;8.98;;
9880;SDS011;4979;51.014;6.678;2024-01-25T03:55:55;43.85;;;8.15;;
9880;SDS011;4979;51.014;6.678;2024-01-25T03:58:21;48.13;;;7.03;;
9880;SDS011;4979;51.014;6.678;2024-01-25T04:00:46;33.53;;;7.15;;
9880;SDS011;4979;51.014;6.678;2024-01-25T04:03:12;48.03;;;8.15;;
9880;SDS011;4979;51.014;6.678;2024-01-25T04:05:38;48.55;;;8.90;;
9880;SDS011;4979;51.014;6.678;2024-01-25T04:08:07;49.97;;;8.48;;
9880;SDS011;4979;51.014;6.678;2024-01-25T04:10:32;38.42;;;7.68;;
9880;SDS011;4979;51.014;6.678;2024-01-25T04:12:58;41.55;;;7.45;;
9880;SDS011;4979;51.014;6.678;2024-01-25T04:15:25;41.50;;;7.20;;
9880;SDS011;4979;51.014;6.678;2024-01-25T04:17:51;35.28;;;6.47;;
9880;SDS011;4979;51.014;6.678;2024-01-25T04:20:18;33.55;;;7.10;;
9880;SDS011;4979;51.014;6.678;2024-01-25T04:22:44;44.63;;;9.60;;
9880;SDS011;4979;51.014;6.678;2024-01-25T04:25:10;54.58;;;9.25;;
9880;SDS011;4979;51.014;6.678;2024-01-25T04:27:37;42.80;;;8.18;;
9880;SDS011;4979;51.014;6.678;2024-01-25T04:30:03;33.97;;;6.53;;
9880;SDS011;4979;51.014;6.678;2024-01-25T04:32:30;35.42;;;8.85;;
9880;SDS011;4979;51.014;6.678;2024-01-25T04:34:55;39.97;;;8.02;;
9880;SDS011;4979;51.014;6.678;2024-01-25T04:37:21;49.47;;;8.30;;
9880;SDS011;4979;51.014;6.678;2024-01-25T04:39:46;40.60;;;7.45;;
9880;SDS011;4979;51.014;6.678;2024-01-25T04:42:12;35.20;;;6.70;;
9880;SDS011;4979;51.014;6.678;2024-01-25T04:44:37;38.45;;;7.32;;
9880;SDS011;4979;51.014;6.678;2024-01-25T04:47:03;51.67;;;8.15;;
9880;SDS011;4979;51.014;6.678;2024-01-25T04:49:28;57.10;;;8.23;;
9880;SDS011;4979;51.014;6.678;2024-01-25T04:51:54;38.35;;;7.28;;
9880;SDS011;4979;51.014;6.678;2024-01-25T04:54:19;44.75;;;7.85;;
9880;SDS011;4979;51.014;6.678;2024-01-25T04:56:45;37.97;;;6.80;;
9880;SDS011;4979;51.014;6.678;2024-01-25T04:59:11;43.78;;;7.55;;
9880;SDS011;4979;51.014;6.678;2024-01-25T05:01:36;41.72;;;7.65;;
9880;SDS011;4979;51.014;6.678;2024-01-25T05:04:02;48.38;;;7.80;;
9880;SDS011;4979;51.014;6.678;2024-01-25T05:06:28;53.47;;;7.82;;
9880;SDS011;4979;51.014;6.678;2024-01-25T05:08:54;42.60;;;7.00;;
9880;SDS011;4979;51.014;6.678;2024-01-25T05:11:19;44.38;;;7.70;;
9880;SDS011;4979;51.014;6.678;2024-01-25T05:13:45;48.25;;;7.57;;
9880;SDS011;4979;51.014;6.678;2024-01-25T05:16:10;37.30;;;7.25;;
9880;SDS011;4979;51.014;6.678;2024-01-25T05:18:36;37.35;;;7.32;;
9880;SDS011;4979;51.014;6.678;2024-01-25T05:21:02;39.63;;;8.02;;
9880;SDS011;4979;51.014;6.678;2024-01-25T05:23:27;49.58;;;7.25;;
9880;SDS011;4979;51.014;6.678;2024-01-25T05:25:53;39.30;;;7.78;;
9880;SDS011;4979;51.014;6.678;2024-01-25T05:28:18;27.85;;;6.50;;
9880;SDS011;4979;51.014;6.678;2024-01-25T05:30:44;49.92;;;8.05;;
9880;SDS011;4979;51.014;6.678;2024-01-25T05:33:10;34.47;;;8.60;;
9880;SDS011;4979;51.014;6.678;2024-01-25T05:35:35;30.17;;;6.90;;
9880;SDS011;4979;51.014;6.678;2024-01-25T05:38:01;39.03;;;8.82;;
9880;SDS011;4979;51.014;6.678;2024-01-25T05:40:27;35.63;;;7.43;;
9880;SDS011;4979;51.014;6.678;2024-01-25T05:42:52;42.22;;;6.82;;
9880;SDS011;4979;51.014;6.678;2024-01-25T05:45:18;31.73;;;6.93;;
9880;SDS011;4979;51.014;6.678;2024-01-25T05:47:46;34.97;;;8.30;;
9880;SDS011;4979;51.014;6.678;2024-01-25T05:50:12;41.72;;;7.55;;
9880;SDS011;4979;51.014;6.678;2024-01-25T05:52:38;33.47;;;6.68;;
9880;SDS011;4979;51.014;6.678;2024-01-25T05:55:04;41.20;;;7.35;;
9880;SDS011;4979;51.014;6.678;2024-01-25T05:57:30;38.88;;;7.43;;
9880;SDS011;4979;51.014;6.678;2024-01-25T05:59:56;39.95;;;7.97;;
9880;SDS011;4979;51.014;6.678;2024-01-25T06:02:22;49.40;;;8.88;;
9880;SDS011;4979;51.014;6.678;2024-01-25T06:04:47;44.58;;;7.90;;
9880;SDS011;4979;51.014;6.678;2024-01-25T06:07:13;42.92;;;8.18;;
9880;SDS011;4979;51.014;6.678;2024-01-25T06:09:38;38.95;;;8.40;;
9880;SDS011;4979;51.014;6.678;2024-01-25T06:12:04;53.83;;;9.25;;
9880;SDS011;4979;51.014;6.678;2024-01-25T06:14:30;50.60;;;8.32;;
9880;SDS011;4979;51.014;6.678;2024-01-25T06:16:56;51.50;;;7.80;;
9880;SDS011;4979;51.014;6.678;2024-01-25T06:19:21;40.53;;;7.47;;
9880;SDS011;4979;51.014;6.678;2024-01-25T06:21:47;46.95;;;8.23;;
9880;SDS011;4979;51.014;6.678;2024-01-25T06:24:12;49.83;;;8.55;;
9880;SDS011;4979;51.014;6.678;2024-01-25T06:26:38;45.95;;;8.23;;
9880;SDS011;4979;51.014;6.678;2024-01-25T06:29:04;50.53;;;9.25;;
9880;SDS011;4979;51.014;6.678;2024-01-25T06:31:29;41.33;;;8.00;;
9880;SDS011;4979;51.014;6.678;2024-01-25T06:33:55;30.98;;;6.97;;
9880;SDS011;4979;51.014;6.678;2024-01-25T06:36:20;37.13;;;9.05;;
9880;SDS011;4979;51.014;6.678;2024-01-25T06:38:46;49.70;;;8.88;;
9880;SDS011;4979;51.014;6.678;2024-01-25T06:41:12;49.15;;;8.15;;
9880;SDS011;4979;51.014;6.678;2024-01-25T06:43:38;29.95;;;7.00;;
9880;SDS011;4979;51.014;6.678;2024-01-25T06:46:05;36.65;;;7.25;;
9880;SDS011;4979;51.014;6.678;2024-01-25T06:48:31;38.70;;;7.70;;
9880;SDS011;4979;51.014;6.678;2024-01-25T06:50:56;42.00;;;8.80;;
9880;SDS011;4979;51.014;6.678;2024-01-25T06:53:22;42.25;;;7.85;;
9880;SDS011;4979;51.014;6.678;2024-01-25T06:55:47;41.20;;;7.25;;
9880;SDS011;4979;51.014;6.678;2024-01-25T06:58:13;39.15;;;7.85;;
9880;SDS011;4979;51.014;6.678;2024-01-25T07:00:39;46.33;;;8.07;;
9880;SDS011;4979;51.014;6.678;2024-01-25T07:03:06;41.17;;;9.00;;
9880;SDS011;4979;51.014;6.678;2024-01-25T07:05:32;46.35;;;9.45;;
9880;SDS011;4979;51.014;6.678;2024-01-25T07:07:59;40.13;;;7.88;;
9880;SDS011;4979;51.014;6.678;2024-01-25T07:10:24;41.22;;;7.50;;
9880;SDS011;4979;51.014;6.678;2024-01-25T07:12:50;36.97;;;7.30;;
9880;SDS011;4979;51.014;6.678;2024-01-25T07:15:17;54.15;;;9.25;;
9880;SDS011;4979;51.014;6.678;2024-01-25T07:17:42;36.00;;;8.18;;
9880;SDS011;4979;51.014;6.678;2024-01-25T07:20:08;34.38;;;8.15;;
9880;SDS011;4979;51.014;6.678;2024-01-25T07:22:34;49.97;;;8.25;;
9880;SDS011;4979;51.014;6.678;2024-01-25T07:25:00;39.35;;;7.32;;
9880;SDS011;4979;51.014;6.678;2024-01-25T07:27:25;56.85;;;8.98;;
9880;SDS011;4979;51.014;6.678;2024-01-25T07:29:51;43.67;;;7.10;;
9880;SDS011;4979;51.014;6.678;2024-01-25T07:32:17;42.15;;;8.82;;
9880;SDS011;4979;51.014;6.678;2024-01-25T07:34:43;39.92;;;8.23;;
9880;SDS011;4979;51.014;6.678;2024-01-25T07:37:09;42.03;;;7.95;;
9880;SDS011;4979;51.014;6.678;2024-01-25T07:39:36;53.60;;;7.57;;
9880;SDS011;4979;51.014;6.678;2024-01-25T07:42:01;37.55;;;8.48;;
9880;SDS011;4979;51.014;6.678;2024-01-25T07:44:27;34.50;;;7.63;;
9880;SDS011;4979;51.014;6.678;2024-01-25T07:46:53;41.90;;;8.95;;
9880;SDS011;4979;51.014;6.678;2024-01-25T07:49:19;59.28;;;10.95;;
9880;SDS011;4979;51.014;6.678;2024-01-25T07:51:44;48.13;;;9.88;;
9880;SDS011;4979;51.014;6.678;2024-01-25T07:54:10;43.58;;;10.15;;
9880;SDS011;4979;51.014;6.678;2024-01-25T07:56:35;47.88;;;11.13;;
9880;SDS011;4979;51.014;6.678;2024-01-25T07:59:01;39.17;;;11.27;;
9880;SDS011;4979;51.014;6.678;2024-01-25T08:01:26;59.58;;;13.68;;
9880;SDS011;4979;51.014;6.678;2024-01-25T08:03:52;54.72;;;12.88;;
9880;SDS011;4979;51.014;6.678;2024-01-25T08:06:17;50.35;;;14.48;;
9880;SDS011;4979;51.014;6.678;2024-01-25T08:08:43;44.45;;;13.07;;
9880;SDS011;4979;51.014;6.678;2024-01-25T08:11:08;51.75;;;13.90;;
9880;SDS011;4979;51.014;6.678;2024-01-25T08:13:34;46.63;;;15.00;;
9880;SDS011;4979;51.014;6.678;2024-01-25T08:15:59;42.80;;;13.57;;
9880;SDS011;4979;51.014;6.678;2024-01-25T08:18:25;48.58;;;14.35;;
9880;SDS011;4979;51.014;6.678;2024-01-25T08:20:54;51.95;;;14.35;;
9880;SDS011;4979;51.014;6.678;2024-01-25T08:23:20;55.40;;;17.73;;
9880;SDS011;4979;51.014;6.678;2024-01-25T08:25:45;54.13;;;15.43;;
9880;SDS011;4979;51.014;6.678;2024-01-25T08:28:11;55.53;;;16.38;;
9880;SDS011;4979;51.014;6.678;2024-01-25T08:30:37;55.15;;;16.20;;
9880;SDS011;4979;51.014;6.678;2024-01-25T08:33:02;75.45;;;17.52;;
9880;SDS011;4979;51.014;6.678;2024-01-25T08:35:28;60.40;;;15.68;;
9880;SDS011;4979;51.014;6.678;2024-01-25T08:37:55;56.80;;;17.45;;
9880;SDS011;4979;51.014;6.678;2024-01-25T08:40:21;48.95;;;15.93;;
9880;SDS011;4979;51.014;6.678;2024-01-25T08:42:46;49.03;;;16.05;;
9880;SDS011;4979;51.014;6.678;2024-01-25T08:45:12;51.10;;;15.25;;
9880;SDS011;4979;51.014;6.678;2024-01-25T08:47:38;50.42;;;14.70;;
9880;SDS011;4979;51.014;6.678;2024-01-25T08:50:04;52.15;;;16.00;;
9880;SDS011;4979;51.014;6.678;2024-01-25T08:52:33;55.75;;;13.70;;
9880;SDS011;4979;51.014;6.678;2024-01-25T08:54:59;45.05;;;13.50;;
9880;SDS011;4979;51.014;6.678;2024-01-25T08:57:25;58.92;;;14.38;;
9880;SDS011;4979;51.014;6.678;2024-01-25T08:59:50;53.03;;;13.43;;
9880;SDS011;4979;51.014;6.678;2024-01-25T09:02:16;54.05;;;13.95;;
9880;SDS011;4979;51.014;6.678;2024-01-25T09:04:41;51.50;;;14.00;;
9880;SDS011;4979;51.014;6.678;2024-01-25T09:07:08;50.67;;;13.65;;
9880;SDS011;4979;51.014;6.678;2024-01-25T09:09:34;52.22;;;13.68;;
9880;SDS011;4979;51.014;6.678;2024-01-25T09:11:59;49.20;;;14.57;;
9880;SDS011;4979;51.014;6.678;2024-01-25T09:14:25;46.60;;;13.45;;
9880;SDS011;4979;51.014;6.678;2024-01-25T09:16:50;47.70;;;13.20;;
9880;SDS011;4979;51.014;6.678;2024-01-25T09:19:16;41.03;;;13.85;;
9880;SDS011;4979;51.014;6.678;2024-01-25T09:21:42;58.72;;;14.05;;
9880;SDS011;4979;51.014;6.678;2024-01-25T09:24:07;44.83;;;13.65;;
9880;SDS011;4979;51.014;6.678;2024-01-25T09:26:33;42.13;;;13.40;;
9880;SDS011;4979;51.014;6.678;2024-01-25T09:28:59;52.95;;;14.13;;
9880;SDS011;4979;51.014;6.678;2024-01-25T09:31:24;56.67;;;13.70;;
9880;SDS011;4979;51.014;6.678;2024-01-25T09:33:50;46.15;;;13.60;;
9880;SDS011;4979;51.014;6.678;2024-01-25T09:36:16;41.55;;;12.70;;
9880;SDS011;4979;51.014;6.678;2024-01-25T09:38:42;43.10;;;12.85;;
9880;SDS011;4979;51.014;6.678;2024-01-25T09:41:07;50.85;;;13.25;;
9880;SDS011;4979;51.014;6.678;2024-01-25T09:43:33;43.35;;;14.70;;
9880;SDS011;4979;51.014;6.678;2024-01-25T09:46:00;53.10;;;14.10;;
9880;SDS011;4979;51.014;6.678;2024-01-25T09:48:26;52.78;;;15.32;;
9880;SDS011;4979;51.014;6.678;2024-01-25T09:50:52;52.90;;;15.60;;
9880;SDS011;4979;51.014;6.678;2024-01-25T09:53:23;59.20;;;14.85;;
9880;SDS011;4979;51.014;6.678;2024-01-25T09:55:57;48.35;;;14.45;;
9880;SDS011;4979;51.014;6.678;2024-01-25T09:58:39;43.47;;;13.48;;
9880;SDS011;4979;51.014;6.678;2024-01-25T10:01:09;51.72;;;14.95;;
9880;SDS011;4979;51.014;6.678;2024-01-25T10:03:37;53.35;;;15.15;;
9880;SDS011;4979;51.014;6.678;2024-01-25T10:06:10;44.13;;;12.63;;
9880;SDS011;4979;51.014;6.678;2024-01-25T10:08:36;47.35;;;14.50;;
9880;SDS011;4979;51.014;6.678;2024-01-25T10:11:02;58.20;;;15.88;;
9880;SDS011;4979;51.014;6.678;2024-01-25T10:13:28;46.58;;;14.95;;
9880;SDS011;4979;51.014;6.678;2024-01-25T10:15:54;46.78;;;14.77;;
9880;SDS011;4979;51.014;6.678;2024-01-25T10:18:22;41.25;;;13.43;;
9880;SDS011;4979;51.014;6.678;2024-01-25T10:20:48;52.03;;;15.40;;
9880;SDS011;4979;51.014;6.678;2024-01-25T10:23:13;55.13;;;15.65;;
9880;SDS011;4979;51.014;6.678;2024-01-25T10:25:39;46.13;;;15.63;;
9880;SDS011;4979;51.014;6.678;2024-01-25T10:28:05;47.42;;;16.00;;
9880;SDS011;4979;51.014;6.678;2024-01-25T10:30:32;52.53;;;14.65;;
9880;SDS011;4979;51.014;6.678;2024-01-25T10:32:59;51.35;;;15.82;;
9880;SDS011;4979;51.014;6.678;2024-01-25T10:35:29;47.00;;;16.25;;
9880;SDS011;4979;51.014;6.678;2024-01-25T10:37:56;54.90;;;16.23;;
9880;SDS011;4979;51.014;6.678;2024-01-25T10:40:22;56.58;;;17.23;;
9880;SDS011;4979;51.014;6.678;2024-01-25T10:42:48;55.42;;;17.65;;
9880;SDS011;4979;51.014;6.678;2024-01-25T10:45:14;56.05;;;18.63;;
9880;SDS011;4979;51.014;6.678;2024-01-25T10:47:40;64.90;;;17.40;;
9880;SDS011;4979;51.014;6.678;2024-01-25T10:50:12;44.20;;;15.68;;
9880;SDS011;4979;51.014;6.678;2024-01-25T10:52:39;45.58;;;17.65;;
9880;SDS011;4979;51.014;6.678;2024-01-25T10:55:06;48.92;;;16.30;;
9880;SDS011;4979;51.014;6.678;2024-01-25T10:57:36;61.15;;;17.33;;
9880;SDS011;4979;51.014;6.678;2024-01-25T11:00:05;44.63;;;16.75;;
9880;SDS011;4979;51.014;6.678;2024-01-25T11:02:34;57.83;;;16.90;;
9880;SDS011;4979;51.014;6.678;2024-01-25T11:05:00;44.28;;;16.95;;
9880;SDS011;4979;51.014;6.678;2024-01-25T11:07:27;47.38;;;17.08;;
9880;SDS011;4979;51.014;6.678;2024-01-25T11:09:53;53.60;;;17.60;;
9880;SDS011;4979;51.014;6.678;2024-01-25T11:12:19;56.40;;;16.75;;
9880;SDS011;4979;51.014;6.678;2024-01-25T11:14:44;50.47;;;17.00;;
9880;SDS011;4979;51.014;6.678;2024-01-25T11:17:19;46.22;;;16.90;;
9880;SDS011;4979;51.014;6.678;2024-01-25T11:19:45;45.13;;;16.73;;
9880;SDS011;4979;51.014;6.678;2024-01-25T11:22:12;42.35;;;14.63;;
9880;SDS011;4979;51.014;6.678;2024-01-25T11:24:39;45.70;;;16.27;;
9880;SDS011;4979;51.014;6.678;2024-01-25T11:27:04;47.63;;;16.60;;
9880;SDS011;4979;51.014;6.678;2024-01-25T11:29:30;45.60;;;15.50;;
9880;SDS011;4979;51.014;6.678;2024-01-25T11:31:56;57.60;;;15.45;;
9880;SDS011;4979;51.014;6.678;2024-01-25T11:34:22;46.42;;;15.80;;
9880;SDS011;4979;51.014;6.678;2024-01-25T11:36:48;44.22;;;14.75;;
9880;SDS011;4979;51.014;6.678;2024-01-25T11:39:15;45.20;;;16.65;;
9880;SDS011;4979;51.014;6.678;2024-01-25T11:41:42;43.05;;;15.48;;
9880;SDS011;4979;51.014;6.678;2024-01-25T11:44:09;47.00;;;16.50;;
9880;SDS011;4979;51.014;6.678;2024-01-25T11:46:35;48.17;;;16.30;;
9880;SDS011;4979;51.014;6.678;2024-01-25T11:49:01;44.83;;;15.48;;
9880;SDS011;4979;51.014;6.678;2024-01-25T11:51:27;49.70;;;16.90;;
9880;SDS011;4979;51.014;6.678;2024-01-25T11:53:52;50.53;;;16.05;;
9880;SDS011;4979;51.014;6.678;2024-01-25T11:56:28;50.67;;;15.23;;
9880;SDS011;4979;51.014;6.678;2024-01-25T11:58:56;42.65;;;15.20;;
9880;SDS011;4979;51.014;6.678;2024-01-25T12:01:25;48.67;;;15.85;;
9880;SDS011;4979;51.014;6.678;2024-01-25T12:03:52;53.25;;;16.00;;
9880;SDS011;4979;51.014;6.678;2024-01-25T12:06:18;61.80;;;18.55;;
9880;SDS011;4979;51.014;6.678;2024-01-25T12:08:44;43.72;;;14.35;;
9880;SDS011;4979;51.014;6.678;2024-01-25T12:11:13;50.20;;;16.45;;
9880;SDS011;4979;51.014;6.678;2024-01-25T12:13:39;43.28;;;13.43;;
9880;SDS011;4979;51.014;6.678;2024-01-25T12:16:06;43.47;;;13.70;;
9880;SDS011;4979;51.014;6.678;2024-01-25T12:18:32;43.22;;;12.77;;
9880;SDS011;4979;51.014;6.678;2024-01-25T12:21:00;49.65;;;19.15;;
9880;SDS011;4979;51.014;6.678;2024-01-25T12:23:38;47.47;;;10.63;;
9880;SDS011;4979;51.014;6.678;2024-01-25T12:26:09;42.33;;;9.88;;
9880;SDS011;4979;51.014;6.678;2024-01-25T12:28:35;42.08;;;10.43;;
9880;SDS011;4979;51.014;6.678;2024-01-25T12:31:02;43.38;;;9.80;;
9880;SDS011;4979;51.014;6.678;2024-01-25T12:33:29;39.45;;;10.32;;
9880;SDS011;4979;51.014;6.678;2024-01-25T12:35:55;38.08;;;9.98;;
9880;SDS011;4979;51.014;6.678;2024-01-25T12:38:21;35.53;;;9.45;;
9880;SDS011;4979;51.014;6.678;2024-01-25T12:40:50;43.03;;;11.55;;
9880;SDS011;4979;51.014;6.678;2024-01-25T12:43:17;35.28;;;8.27;;
9880;SDS011;4979;51.014;6.678;2024-01-25T12:45:43;33.63;;;9.23;;
9880;SDS011;4979;51.014;6.678;2024-01-25T12:48:09;38.38;;;11.13;;
9880;SDS011;4979;51.014;6.678;2024-01-25T12:50:35;36.08;;;9.75;;
9880;SDS011;4979;51.014;6.678;2024-01-25T12:53:01;34.10;;;9.57;;
9880;SDS011;4979;51.014;6.678;2024-01-25T12:55:30;53.03;;;11.20;;
9880;SDS011;4979;51.014;6.678;2024-01-25T12:57:56;50.75;;;9.30;;
9880;SDS011;4979;51.014;6.678;2024-01-25T13:00:22;42.97;;;8.40;;
9880;SDS011;4979;51.014;6.678;2024-01-25T13:02:48;45.58;;;9.02;;
9880;SDS011;4979;51.014;6.678;2024-01-25T13:05:14;26.13;;;8.30;;
9880;SDS011;4979;51.014;6.678;2024-01-25T13:07:40;28.20;;;8.18;;
9880;SDS011;4979;51.014;6.678;2024-01-25T13:10:06;31.50;;;8.45;;
9880;SDS011;4979;51.014;6.678;2024-01-25T13:12:33;41.05;;;8.38;;
9880;SDS011;4979;51.014;6.678;2024-01-25T13:14:59;35.15;;;9.07;;
9880;SDS011;4979;51.014;6.678;2024-01-25T13:17:24;46.08;;;8.80;;
9880;SDS011;4979;51.014;6.678;2024-01-25T13:19:50;38.95;;;8.80;;
9880;SDS011;4979;51.014;6.678;2024-01-25T13:22:16;35.72;;;9.00;;
9880;SDS011;4979;51.014;6.678;2024-01-25T13:24:45;34.28;;;8.68;;
9880;SDS011;4979;51.014;6.678;2024-01-25T13:27:11;33.80;;;7.95;;
9880;SDS011;4979;51.014;6.678;2024-01-25T13:29:37;41.50;;;8.48;;
9880;SDS011;4979;51.014;6.678;2024-01-25T13:32:03;35.75;;;8.65;;
9880;SDS011;4979;51.014;6.678;2024-01-25T13:34:28;41.03;;;9.90;;
9880;SDS011;4979;51.014;6.678;2024-01-25T13:36:54;39.53;;;8.70;;
9880;SDS011;4979;51.014;6.678;2024-01-25T13:39:19;52.90;;;10.02;;
9880;SDS011;4979;51.014;6.678;2024-01-25T13:41:45;33.40;;;8.35;;
9880;SDS011;4979;51.014;6.678;2024-01-25T13:44:11;41.65;;;10.23;;
9880;SDS011;4979;51.014;6.678;2024-01-25T13:46:38;38.42;;;8.48;;
9880;SDS011;4979;51.014;6.678;2024-01-25T13:49:04;33.17;;;8.38;;
9880;SDS011;4979;51.014;6.678;2024-01-25T13:51:29;34.60;;;8.02;;
9880;SDS011;4979;51.014;6.678;2024-01-25T13:53:55;29.60;;;7.05;;
9880;SDS011;4979;51.014;6.678;2024-01-25T13:56:21;45.40;;;7.80;;
9880;SDS011;4979;51.014;6.678;2024-01-25T13:58:47;36.15;;;8.68;;
9880;SDS011;4979;51.014;6.678;2024-01-25T14:01:12;31.75;;;6.40;;
9880;SDS011;4979;51.014;6.678;2024-01-25T14:03:38;32.25;;;7.57;;
9880;SDS011;4979;51.014;6.678;2024-01-25T14:06:03;33.08;;;7.43;;
9880;SDS011;4979;51.014;6.678;2024-01-25T14:08:30;35.20;;;8.13;;
9880;SDS011;4979;51.014;6.678;2024-01-25T14:10:57;40.90;;;7.57;;
9880;SDS011;4979;51.014;6.678;2024-01-25T14:13:22;35.72;;;6.72;;
9880;SDS011;4979;51.014;6.678;2024-01-25T14:15:48;21.75;;;6.03;;
9880;SDS011;4979;51.014;6.678;2024-01-25T14:18:13;30.25;;;7.85;;
9880;SDS011;4979;51.014;6.678;2024-01-25T14:20:39;53.22;;;9.70;;
9880;SDS011;4979;51.014;6.678;2024-01-25T14:23:05;42.70;;;9.10;;
9880;SDS011;4979;51.014;6.678;2024-01-25T14:25:30;29.13;;;7.38;;
9880;SDS011;4979;51.014;6.678;2024-01-25T14:27:56;35.78;;;11.13;;
9880;SDS011;4979;51.014;6.678;2024-01-25T14:30:21;36.10;;;11.18;;
9880;SDS011;4979;51.014;6.678;2024-01-25T14:32:47;42.10;;;11.75;;
9880;SDS011;4979;51.014;6.678;2024-01-25T14:35:12;33.45;;;7.65;;
9880;SDS011;4979;51.014;6.678;2024-01-25T14:37:38;26.17;;;6.82;;
9880;SDS011;4979;51.014;6.678;2024-01-25T14:40:04;53.83;;;8.02;;
9880;SDS011;4979;51.014;6.678;2024-01-25T14:42:30;29.05;;;7.03;;
9880;SDS011;4979;51.014;6.678;2024-01-25T14:44:55;69.25;;;22.88;;
9880;SDS011;4979;51.014;6.678;2024-01-25T14:47:21;34.40;;;6.72;;
9880;SDS011;4979;51.014;6.678;2024-01-25T14:49:48;66.50;;;21.40;;